Jimma, Ethiopia
Current Conditions -  °F | °C
As of 8:00 PM on Tuesday 21 Oct 2014 (Local Time) from HAAB Reporting Station
Scattered Clouds Scattered Clouds  
Wind Chill: 64°   Ceiling: Unl
Heat Index: 64°   Visibility: 6mi
Dew Point: 54°   Wind: 12mph
Humidity: 68%   Direction: 40°NE
Pressure: 30.36"   Gusts: NA
Location:  7.68°N, 36.83°E
Report Text: HAAB 211700Z 04010KT 9999 SCT025 18/12 Q1028
Loading
Personal Weather Stations






























Interactive Weather Map
Tropical Storm Tracking
New forecast layout! Learn more

10-Day Weather Forecast

Advertisements
Track Severe Weather on mobile